Shakawe, Botswana
Current Conditions -  °F | °C
As of 8:00 AM on Saturday 20 Dec 2014 (Local Time) from FYRN Reporting Station
Clear Clear  
Wind Chill: 75°   Ceiling: Unl
Heat Index: 75°   Visibility: 6mi
Dew Point: 55°   Wind: 0mph
Humidity: 50%   Direction: NA
Pressure: 30"   Gusts: NA
Location:  18.36°S, 21.84°E
Report Text: FYRN 200600Z 00000KT CAVOK 24/13 Q1016
Loading
Personal Weather Stations






























Interactive Weather Map New forecast layout! Learn more

10-Day Weather Forecast

Advertisements
Track Severe Weather on mobile